createdAt,value
2023-05-12T00:03:19.281Z,6.07
2023-05-12T00:07:02.040Z,6.50
2023-05-12T00:10:45.076Z,6.50
2023-05-12T00:14:27.804Z,6.20
2023-05-12T00:18:10.559Z,5.83
2023-05-12T00:21:54.568Z,5.53
2023-05-12T00:25:37.304Z,5.60
2023-05-12T00:29:22.965Z,5.27
2023-05-12T00:33:05.926Z,5.30
2023-05-12T00:36:48.736Z,6.10
2023-05-12T00:40:32.760Z,6.20
2023-05-12T00:44:15.478Z,6.40
2023-05-12T00:47:58.591Z,6.10
2023-05-12T00:51:41.610Z,6.47
2023-05-12T00:55:24.307Z,5.90
2023-05-12T00:59:08.412Z,5.87
2023-05-12T01:02:51.202Z,5.73
2023-05-12T01:06:37.275Z,5.87
2023-05-12T01:10:21.158Z,5.73
2023-05-12T01:14:04.370Z,6.50
2023-05-12T01:17:53.733Z,6.27
2023-05-12T01:21:37.022Z,6.57
2023-05-12T01:25:20.933Z,6.40
2023-05-12T01:29:05.491Z,6.50
2023-05-12T01:32:48.533Z,6.73
2023-05-12T01:36:31.601Z,6.70
2023-05-12T01:40:14.609Z,6.13
2023-05-12T01:43:57.318Z,6.40
2023-05-12T01:47:41.347Z,6.97
2023-05-12T01:51:24.002Z,6.40
2023-05-12T01:55:07.238Z,6.83
2023-05-12T01:58:50.260Z,7.23
2023-05-12T02:02:34.455Z,6.77
2023-05-12T02:06:18.567Z,6.97
2023-05-12T02:10:01.314Z,6.43
2023-05-12T02:13:45.224Z,7.17
2023-05-12T02:17:28.805Z,6.00
2023-05-12T02:21:11.660Z,6.33
2023-05-12T02:24:55.792Z,6.40
2023-05-12T02:28:38.806Z,7.57
2023-05-12T02:32:21.659Z,7.63
2023-05-12T02:36:04.786Z,7.67
2023-05-12T02:39:47.486Z,7.97
2023-05-12T02:43:31.589Z,7.70
2023-05-12T02:47:14.290Z,7.07
2023-05-12T02:50:57.251Z,7.03
2023-05-12T02:54:39.878Z,6.17
2023-05-12T02:58:23.087Z,7.13
2023-05-12T03:02:07.296Z,7.33
2023-05-12T03:05:52.580Z,7.23
2023-05-12T03:09:35.281Z,6.90
2023-05-12T03:13:18.005Z,6.20
2023-05-12T03:17:00.782Z,6.87
2023-05-12T03:20:44.904Z,6.10
2023-05-12T03:24:27.706Z,6.03
2023-05-12T03:28:10.707Z,6.33
2023-05-12T03:31:53.539Z,6.47
2023-05-12T03:35:36.583Z,5.63
2023-05-12T03:39:23.580Z,5.40
2023-05-12T03:43:06.620Z,5.83
2023-05-12T03:46:49.425Z,6.20
2023-05-12T03:50:32.155Z,5.07
2023-05-12T03:54:14.969Z,5.40
2023-05-12T03:57:59.023Z,5.17
2023-05-12T04:01:41.965Z,6.03
2023-05-12T04:05:24.684Z,5.73
2023-05-12T04:09:07.473Z,6.00
2023-05-12T04:12:50.150Z,5.60
2023-05-12T04:16:35.545Z,5.77
2023-05-12T04:20:18.528Z,5.43
2023-05-12T04:24:01.360Z,5.00
2023-05-12T04:27:44.032Z,5.40
2023-05-12T04:31:26.757Z,5.13
2023-05-12T04:35:11.150Z,4.50
2023-05-12T04:38:55.758Z,4.27
2023-05-12T04:42:38.633Z,4.37
2023-05-12T04:46:21.886Z,4.20
2023-05-12T04:50:05.767Z,4.17
2023-05-12T04:53:49.791Z,4.17
2023-05-12T04:57:32.600Z,2.50
2023-05-12T05:01:15.366Z,2.40
2023-05-12T05:04:58.064Z,5.43
2023-05-12T05:08:40.838Z,2.40
2023-05-12T05:12:25.774Z,1.83
2023-05-12T05:16:08.898Z,1.80
2023-05-12T05:19:58.444Z,1.40
2023-05-12T05:23:42.854Z,1.30
2023-05-12T05:27:26.948Z,1.53
2023-05-12T05:31:09.790Z,1.40
2023-05-12T05:34:52.618Z,2.00
2023-05-12T05:38:35.397Z,1.80
2023-05-12T05:42:18.922Z,1.50
2023-05-12T05:46:03.112Z,2.03
2023-05-12T05:49:45.773Z,1.83
2023-05-12T05:53:28.563Z,1.90
2023-05-12T05:57:11.354Z,2.10
2023-05-12T06:00:54.090Z,2.20
2023-05-12T06:04:38.080Z,2.50
2023-05-12T06:08:20.815Z,2.50
2023-05-12T06:12:03.754Z,2.30
2023-05-12T06:15:49.532Z,3.53
2023-05-12T06:19:32.261Z,2.80
2023-05-12T06:23:16.299Z,2.83
2023-05-12T06:26:59.059Z,2.90
2023-05-12T06:30:41.694Z,3.03
2023-05-12T06:34:24.383Z,3.00
2023-05-12T06:38:07.224Z,4.33
2023-05-12T06:41:51.258Z,3.60
2023-05-12T06:45:33.893Z,3.63
2023-05-12T06:49:16.671Z,4.53
2023-05-12T06:52:59.464Z,3.73
2023-05-12T06:56:42.152Z,3.60
2023-05-12T07:00:27.022Z,3.57
2023-05-12T07:04:09.838Z,3.10
2023-05-12T07:07:52.863Z,3.50
2023-05-12T07:11:38.566Z,4.57
2023-05-12T07:15:21.598Z,3.90
2023-05-12T07:19:08.772Z,3.87
2023-05-12T07:22:52.528Z,3.20
2023-05-12T07:26:35.261Z,3.50
2023-05-12T07:30:18.287Z,3.30
2023-05-12T07:34:01.007Z,3.73
2023-05-12T07:37:45.102Z,3.40
2023-05-12T07:41:27.842Z,3.43
2023-05-12T07:45:11.020Z,3.90
2023-05-12T07:48:53.924Z,3.50
2023-05-12T07:52:36.610Z,3.57
2023-05-12T07:56:21.687Z,3.77
2023-05-12T08:00:05.069Z,4.10
2023-05-12T08:03:51.211Z,4.13
2023-05-12T08:07:34.308Z,4.30
2023-05-12T08:11:17.003Z,4.40
2023-05-12T08:15:01.248Z,4.40
2023-05-12T08:18:44.279Z,4.00
2023-05-12T08:22:27.003Z,3.83
2023-05-12T08:26:09.748Z,4.27
2023-05-12T08:29:52.521Z,4.60
2023-05-12T08:33:36.905Z,4.17
2023-05-12T08:37:19.628Z,4.50
2023-05-12T08:41:12.946Z,4.50
2023-05-12T08:44:55.989Z,4.00
2023-05-12T08:48:41.608Z,4.20
2023-05-12T08:52:24.702Z,4.93
2023-05-12T08:59:55.704Z,4.63
2023-05-12T09:03:39.902Z,4.50
2023-05-12T09:07:24.404Z,4.47
2023-05-12T09:11:07.193Z,4.40
2023-05-12T09:15:03.220Z,3.73
2023-05-12T09:18:50.462Z,4.60
2023-05-12T09:22:35.075Z,4.60
2023-05-12T09:26:17.767Z,4.40
2023-05-12T09:30:00.486Z,4.97
2023-05-12T09:33:43.821Z,4.10
2023-05-12T09:37:33.029Z,4.40
2023-05-12T09:41:23.993Z,4.70
2023-05-12T09:45:09.745Z,4.20
2023-05-12T09:48:53.187Z,4.80
2023-05-12T09:52:39.505Z,4.63
2023-05-12T09:56:22.837Z,4.70
2023-05-12T10:00:16.601Z,4.90
2023-05-12T10:04:07.937Z,4.83
2023-05-12T10:07:55.737Z,5.50
2023-05-12T10:11:38.589Z,5.40
2023-05-12T10:15:22.455Z,5.57
2023-05-12T10:19:05.405Z,5.40
2023-05-12T10:22:49.151Z,4.80
2023-05-12T10:26:34.887Z,5.07
2023-05-12T10:30:17.720Z,5.47
2023-05-12T10:34:01.839Z,4.80
2023-05-12T10:37:44.784Z,5.30
2023-05-12T10:41:31.086Z,4.43
2023-05-12T10:45:21.491Z,4.67
2023-05-12T10:49:10.137Z,4.87
2023-05-12T10:52:56.451Z,4.73
2023-05-12T10:56:45.138Z,4.70
2023-05-12T11:00:30.093Z,4.63
2023-05-12T11:04:14.802Z,3.93
2023-05-12T11:07:58.808Z,3.67
2023-05-12T11:11:41.783Z,3.27
2023-05-12T11:15:24.815Z,3.17
2023-05-12T11:19:09.028Z,2.83
2023-05-12T11:22:51.914Z,3.80
2023-05-12T11:26:35.124Z,3.40
2023-05-12T11:30:18.051Z,1.93
2023-05-12T11:34:11.926Z,2.70
2023-05-12T11:37:59.084Z,1.07
2023-05-12T11:41:41.863Z,0.70
2023-05-12T11:45:27.033Z,1.60
2023-05-12T11:49:12.656Z,1.00
2023-05-12T11:52:57.771Z,0.90
2023-05-12T11:56:40.428Z,0.73
2023-05-12T12:00:28.816Z,1.00
2023-05-12T12:04:11.557Z,0.70
2023-05-12T12:08:07.689Z,0.77
2023-05-12T12:11:50.508Z,0.80
2023-05-12T12:15:33.412Z,0.73
2023-05-12T12:19:16.204Z,1.67
2023-05-12T12:22:59.030Z,1.73
2023-05-12T12:26:43.165Z,1.83
2023-05-12T12:30:26.021Z,1.70
2023-05-12T12:34:08.731Z,2.00
2023-05-12T12:37:52.331Z,2.33
2023-05-12T12:41:35.182Z,1.60
2023-05-12T12:45:20.494Z,1.70
2023-05-12T12:49:03.549Z,2.37
2023-05-12T12:52:46.340Z,3.20
2023-05-12T12:56:29.868Z,1.80
2023-05-12T13:00:13.805Z,1.50
2023-05-12T13:04:00.247Z,1.50
2023-05-12T13:07:43.078Z,1.73
2023-05-12T13:11:26.213Z,1.90
2023-05-12T13:15:10.446Z,2.13
2023-05-12T13:18:53.132Z,1.77
2023-05-12T13:22:37.439Z,1.60
2023-05-12T13:26:20.146Z,1.63
2023-05-12T13:30:04.478Z,2.20
2023-05-12T13:33:47.592Z,2.60
2023-05-12T13:37:30.420Z,2.80
2023-05-12T13:41:14.490Z,3.70
2023-05-12T13:44:57.594Z,4.00
2023-05-12T13:48:40.217Z,4.20
2023-05-12T13:52:23.010Z,4.83
2023-05-12T13:56:06.082Z,5.03
2023-05-12T13:59:50.488Z,5.40
2023-05-12T14:03:33.180Z,5.33
2023-05-12T14:07:16.180Z,4.97
2023-05-12T14:11:01.710Z,4.80
2023-05-12T14:14:49.643Z,5.00
2023-05-12T14:18:33.742Z,4.83
2023-05-12T14:22:28.267Z,5.27
2023-05-12T14:26:10.953Z,5.40
2023-05-12T14:29:53.853Z,5.27
2023-05-12T14:33:37.900Z,3.93
2023-05-12T14:37:20.542Z,4.63
2023-05-12T14:41:03.342Z,5.33
2023-05-12T14:44:46.436Z,4.67
2023-05-12T14:48:29.423Z,6.10
2023-05-12T14:52:17.086Z,7.50
2023-05-12T14:55:59.897Z,6.03
2023-05-12T14:59:43.290Z,6.60
2023-05-12T15:03:26.723Z,8.53
2023-05-12T15:07:09.694Z,5.27
2023-05-12T15:10:53.879Z,5.97
2023-05-12T15:14:36.650Z,5.20
2023-05-12T15:18:19.441Z,5.30
2023-05-12T15:22:02.203Z,7.23
2023-05-12T15:25:45.127Z,5.50
2023-05-12T15:29:29.324Z,5.07
2023-05-12T15:33:12.182Z,5.57
2023-05-12T15:36:54.942Z,5.10
2023-05-12T15:40:38.289Z,5.90
2023-05-12T15:44:20.966Z,5.80
2023-05-12T15:48:07.362Z,5.50
2023-05-12T15:51:52.068Z,6.63
2023-05-12T15:55:34.864Z,7.60
2023-05-12T15:59:18.319Z,7.03
2023-05-12T16:03:01.996Z,6.47
2023-05-12T16:06:46.299Z,6.17
2023-05-12T16:10:28.945Z,17.40
2023-05-12T16:14:11.640Z,8.87
2023-05-12T16:17:54.430Z,6.30
2023-05-12T16:21:37.141Z,5.77
2023-05-12T16:25:21.535Z,5.90
2023-05-12T16:29:04.624Z,5.70
2023-05-12T16:32:47.808Z,5.40
2023-05-12T16:36:32.097Z,5.60
2023-05-12T16:40:15.432Z,5.40
2023-05-12T16:44:00.712Z,5.87
2023-05-12T16:47:43.608Z,5.67
2023-05-12T16:51:30.492Z,5.17
2023-05-12T16:55:13.271Z,4.13
2023-05-12T16:58:56.244Z,3.80
2023-05-12T17:02:40.817Z,3.00
2023-05-12T17:06:23.578Z,3.40
2023-05-12T17:10:06.910Z,2.90
2023-05-12T17:13:49.824Z,4.90
2023-05-12T17:17:32.492Z,4.50
2023-05-12T17:21:16.637Z,3.00
2023-05-12T17:24:59.445Z,3.13
2023-05-12T17:28:42.316Z,4.03
2023-05-12T17:32:24.972Z,3.33
2023-05-12T17:36:12.790Z,3.20
2023-05-12T17:39:57.162Z,3.00
2023-05-12T17:43:39.925Z,3.13
2023-05-12T17:47:24.412Z,3.40
2023-05-12T17:51:07.690Z,3.10
2023-05-12T17:54:50.610Z,3.27
2023-05-12T17:58:34.754Z,2.83
2023-05-12T18:02:17.744Z,4.53
2023-05-12T18:06:00.699Z,3.43
2023-05-12T18:09:43.498Z,2.80
2023-05-12T18:13:26.201Z,3.50
2023-05-12T18:17:10.254Z,3.40
2023-05-12T18:20:53.046Z,3.67
2023-05-12T18:24:35.830Z,3.67
2023-05-12T18:28:18.490Z,3.60
2023-05-12T18:32:01.175Z,21.23
2023-05-12T18:35:45.244Z,36.23
2023-05-12T18:39:27.962Z,10.27
2023-05-12T18:43:10.737Z,5.80
2023-05-12T18:46:53.566Z,4.20
2023-05-12T18:50:36.440Z,4.40
2023-05-12T18:54:20.903Z,3.73
2023-05-12T18:58:03.805Z,4.30
2023-05-12T19:01:48.964Z,7.50
2023-05-12T19:05:32.071Z,6.07
2023-05-12T19:09:17.559Z,5.43
2023-05-12T19:13:01.837Z,6.30
2023-05-12T19:16:46.528Z,5.20
2023-05-12T19:20:29.440Z,5.60
2023-05-12T19:24:12.503Z,5.60
2023-05-12T19:27:55.276Z,4.47
2023-05-12T19:31:39.420Z,5.07
2023-05-12T19:35:22.916Z,4.20
2023-05-12T19:39:05.912Z,22.63
2023-05-12T19:42:48.573Z,9.50
2023-05-12T19:46:33.267Z,4.40
2023-05-12T19:50:18.707Z,5.50
2023-05-12T19:54:01.959Z,6.53
2023-05-12T19:57:44.715Z,5.00
2023-05-12T20:01:27.758Z,5.53
2023-05-12T20:05:11.073Z,4.97
2023-05-12T20:08:55.183Z,6.70
2023-05-12T20:12:37.960Z,6.83
2023-05-12T20:16:20.624Z,5.43
2023-05-12T20:20:04.216Z,5.07
2023-05-12T20:23:46.915Z,5.60
2023-05-12T20:27:31.208Z,6.10
2023-05-12T20:31:14.029Z,5.93
2023-05-12T20:34:57.200Z,6.67
2023-05-12T20:38:39.865Z,5.40
2023-05-12T20:42:22.665Z,5.27
2023-05-12T20:46:07.232Z,11.50
2023-05-12T20:49:52.880Z,7.13
2023-05-12T20:53:36.548Z,5.90
2023-05-12T20:57:19.285Z,5.80
2023-05-12T21:01:02.045Z,5.80
2023-05-12T21:04:46.260Z,5.60
2023-05-12T21:08:28.911Z,7.53
2023-05-12T21:12:11.640Z,5.80
2023-05-12T21:15:57.765Z,5.40
2023-05-12T21:19:41.859Z,6.37
2023-05-12T21:23:27.279Z,5.43
2023-05-12T21:27:10.179Z,5.70
2023-05-12T21:30:52.935Z,6.03
2023-05-12T21:34:36.135Z,5.40
2023-05-12T21:38:20.935Z,6.20
2023-05-12T21:42:05.625Z,6.33
2023-05-12T21:45:48.393Z,6.70
2023-05-12T21:49:31.147Z,5.97
2023-05-12T21:53:14.946Z,5.53
2023-05-12T21:56:58.101Z,5.40
2023-05-12T22:00:42.177Z,5.23
2023-05-12T22:04:24.901Z,5.73
2023-05-12T22:08:07.596Z,5.50
2023-05-12T22:11:50.521Z,5.73
2023-05-12T22:15:34.102Z,5.30
2023-05-12T22:19:18.250Z,5.10
2023-05-12T22:23:01.076Z,5.30
2023-05-12T22:26:43.803Z,6.40
2023-05-12T22:30:26.612Z,6.00
2023-05-12T22:34:09.416Z,5.80
2023-05-12T22:37:53.689Z,5.43
2023-05-12T22:41:36.509Z,5.57
2023-05-12T22:45:19.247Z,5.60
2023-05-12T22:49:02.073Z,5.80
2023-05-12T22:52:45.019Z,5.20
2023-05-12T22:56:29.113Z,5.43
2023-05-12T23:00:12.686Z,5.33
2023-05-12T23:03:55.356Z,5.63
2023-05-12T23:07:38.111Z,5.80
2023-05-12T23:11:21.134Z,5.10
2023-05-12T23:15:05.441Z,5.00
2023-05-12T23:18:48.295Z,4.63
2023-05-12T23:22:31.168Z,5.07
2023-05-12T23:26:13.896Z,4.70
2023-05-12T23:29:56.752Z,5.13
2023-05-12T23:33:41.163Z,4.60
2023-05-12T23:37:24.537Z,8.23
2023-05-12T23:41:07.325Z,5.50
2023-05-12T23:44:49.998Z,6.97
2023-05-12T23:48:32.840Z,5.93
2023-05-12T23:52:16.922Z,6.37
2023-05-12T23:55:59.565Z,8.13
2023-05-12T23:59:42.267Z,6.37
